METAR AND TAF INFORMATION
METAR FOR VYYY
ADDS - METARS form results

(0527 UTC 17 July 2019)
Data provider http://aviationweather.gov/metar/data/
 
METAR text: VYYY 170500Z 24010KT 5000 -RA BKN012 FEW018CB OVC090 28/27 Q1004 BECMG TL0630 5000 -RA
Conditions at: VYYY (YANGON INTL MYAN, VN) observed 0500 UTC 17 July 2019
Temperature: 28.0°C (82°F)
Dewpoint: 27.0°C (81°F) [RH = 94%]
Pressure (altimeter): 29.65 inches Hg (1004.0 mb)
Winds: from the WSW (240 degrees) at 12 MPH (10 knots; 5.1 m/s)
Visibility: 3 miles ( 5 km)
Ceiling: 1200 feet AGL
Clouds: broken clouds at 1200 feet AGL
few clouds at 1800 feet AGL
overcast cloud deck at 9000 feet AGL
Weather: -RA  (light rain)

METAR text: VYYY 170430Z 23010KT 3000 RA BKN010 FEW018CB OVC090 28/27 Q1004 BECMG TL0630 5000 -RA
Conditions at: VYYY (YANGON INTL MYAN, VN) observed 0430 UTC 17 July 2019
Temperature: 28.0°C (82°F)
Dewpoint: 27.0°C (81°F) [RH = 94%]
Pressure (altimeter): 29.65 inches Hg (1004.0 mb)
Winds: from the SW (230 degrees) at 12 MPH (10 knots; 5.1 m/s)
Visibility: 1.86 miles (2.99 km)
Ceiling: 1000 feet AGL
Clouds: broken clouds at 1000 feet AGL
few clouds at 1800 feet AGL
overcast cloud deck at 9000 feet AGL
Weather: RA  (moderate rain)

 AIRPORT MAP

 RUNWAY INFORMATION
Runway 03 Runway length 11200 ft Runway width 200 ft
Runway elevation 109 ft Runway displaced threshold 0 ft Runway heading 33
Runway 21 Runway length 11200 ft Runway width 200 ft
Runway elevation 65 ft Runway displaced threshold 275 ft Runway heading 213

 AIRPORT FREQUENCIES
Type APP Name MINGALADON Frequency 119.7 MHZ
Type ATIS Name ATIS Frequency 128.4 MHZ
Type GND Name MINGALADON Frequency 121.9 MHZ
Type TWR Name MINGALADON Frequency 118.1 MHZ

 AIRPORT NEAR NAVIGATION AIDS
Type NDB Name Mingaladon Frequency 397 KHZ
Type NDB Name Yangon Frequency 265 KHZ



We are a FlightSim virtual group and are in no way affiliated with RavnAir Group.

Powered by Virtual Airlines Manager [v2.6.2]